createdAt,value
2022-11-16T00:01:57.037Z,12.90
2022-11-16T00:04:24.928Z,12.80
2022-11-16T00:06:52.871Z,12.80
2022-11-16T00:09:23.323Z,12.80
2022-11-16T00:11:54.272Z,12.80
2022-11-16T00:14:23.767Z,12.80
2022-11-16T00:16:52.404Z,12.80
2022-11-16T00:19:20.421Z,12.70
2022-11-16T00:21:48.542Z,12.70
2022-11-16T00:24:17.625Z,12.70
2022-11-16T00:29:17.063Z,12.70
2022-11-16T00:31:45.144Z,12.70
2022-11-16T00:34:13.088Z,12.70
2022-11-16T00:36:40.863Z,12.70
2022-11-16T00:39:08.595Z,12.70
2022-11-16T00:41:36.273Z,12.70
2022-11-16T00:44:04.001Z,12.60
2022-11-16T00:46:33.099Z,12.70
2022-11-16T00:49:00.827Z,12.60
2022-11-16T00:51:28.543Z,12.60
2022-11-16T00:53:56.262Z,12.60
2022-11-16T00:56:24.403Z,12.60
2022-11-16T00:58:52.125Z,12.60
2022-11-16T05:02:27.291Z,12.30
2022-11-16T05:04:55.439Z,12.20
2022-11-16T05:07:23.515Z,12.20
2022-11-16T05:09:51.446Z,12.10
2022-11-16T05:12:23.411Z,12.10
2022-11-16T05:14:51.345Z,12.10
2022-11-16T05:17:20.103Z,12.10
2022-11-16T05:20:06.845Z,12.20
2022-11-16T05:22:35.141Z,12.10
2022-11-16T05:25:02.960Z,12.10
2022-11-16T05:27:31.541Z,12.20
2022-11-16T05:29:59.926Z,12.10
2022-11-16T05:32:29.046Z,12.10
2022-11-16T05:34:58.196Z,12.10
2022-11-16T05:37:26.777Z,12.10
2022-11-16T05:39:54.756Z,12.20
2022-11-16T05:42:22.551Z,12.20
2022-11-16T05:44:50.395Z,12.20
2022-11-16T05:47:18.088Z,12.20
2022-11-16T05:49:45.804Z,12.20
2022-11-16T05:52:14.971Z,12.20
2022-11-16T05:54:42.678Z,12.20
2022-11-16T05:57:10.406Z,12.20
2022-11-16T05:59:38.161Z,12.20
2022-11-16T06:02:05.952Z,12.20
2022-11-16T06:04:34.294Z,12.10
2022-11-16T06:07:03.199Z,12.10
2022-11-16T06:09:32.331Z,12.10
2022-11-16T06:12:00.069Z,12.00
2022-11-16T06:14:27.804Z,12.00
2022-11-16T06:16:55.558Z,12.10
2022-11-16T06:19:25.129Z,12.10
2022-11-16T06:21:55.983Z,12.10
2022-11-16T06:24:23.845Z,12.10
2022-11-16T06:26:52.951Z,12.00
2022-11-16T06:29:20.776Z,12.00
2022-11-16T06:31:48.488Z,12.10
2022-11-16T06:34:16.453Z,12.10
2022-11-16T06:36:44.207Z,12.00
2022-11-16T06:39:13.253Z,12.00
2022-11-16T06:41:41.601Z,12.00
2022-11-16T06:44:11.082Z,12.00
2022-11-16T06:46:38.812Z,12.00
2022-11-16T06:49:06.575Z,12.00
2022-11-16T06:51:34.291Z,12.00
2022-11-16T06:56:30.365Z,12.10
2022-11-16T06:58:58.140Z,12.10
2022-11-16T07:01:27.491Z,12.10
2022-11-16T07:03:55.328Z,12.10
2022-11-16T07:09:17.142Z,12.00
2022-11-16T07:11:44.830Z,12.00
2022-11-16T07:14:12.960Z,12.10
2022-11-16T07:16:42.012Z,12.10
2022-11-16T07:19:10.142Z,12.00
2022-11-16T07:21:38.502Z,12.00
2022-11-16T07:24:06.471Z,12.00
2022-11-16T07:26:34.337Z,12.00
2022-11-16T07:29:03.119Z,11.90
2022-11-16T07:31:31.034Z,11.90
2022-11-16T07:34:00.098Z,11.90
2022-11-16T07:36:27.895Z,11.90
2022-11-16T07:38:55.667Z,11.90
2022-11-16T07:41:23.395Z,11.90
2022-11-16T07:43:53.423Z,11.90
2022-11-16T07:46:46.676Z,11.90
2022-11-16T07:49:15.555Z,11.90
2022-11-16T07:51:43.365Z,11.90
2022-11-16T07:54:12.916Z,11.90
2022-11-16T07:56:40.683Z,11.90
2022-11-16T07:59:08.711Z,11.90
2022-11-16T08:01:36.508Z,11.90
2022-11-16T08:04:04.336Z,12.00
2022-11-16T08:06:33.445Z,12.00
2022-11-16T08:09:01.296Z,12.10
2022-11-16T08:11:29.165Z,12.20
2022-11-16T08:13:57.770Z,12.20
2022-11-16T08:16:25.598Z,12.20
2022-11-16T08:18:53.547Z,12.20
2022-11-16T08:21:21.294Z,12.40
2022-11-16T08:23:55.207Z,12.40
2022-11-16T08:26:25.819Z,12.40
2022-11-16T08:28:55.584Z,12.40
2022-11-16T08:31:25.986Z,12.50
2022-11-16T08:33:53.870Z,12.50
2022-11-16T08:36:21.977Z,12.40
2022-11-16T08:38:52.893Z,12.40
2022-11-16T08:41:21.748Z,12.30
2022-11-16T08:43:50.583Z,12.20
2022-11-16T08:46:18.497Z,12.20
2022-11-16T08:48:47.051Z,12.10
2022-11-16T08:51:19.468Z,12.20
2022-11-16T08:53:49.086Z,12.20
2022-11-16T08:56:19.311Z,12.30
2022-11-16T08:58:48.824Z,12.20
2022-11-16T09:01:21.466Z,12.20
2022-11-16T09:03:49.476Z,12.30
2022-11-16T09:06:17.718Z,12.20
2022-11-16T09:08:46.909Z,12.00
2022-11-16T09:11:16.829Z,12.00
2022-11-16T09:13:47.088Z,11.90
2022-11-16T09:16:16.485Z,12.00
2022-11-16T09:18:45.553Z,12.00
2022-11-16T09:21:13.404Z,12.10
2022-11-16T09:23:41.274Z,12.20
2022-11-16T09:26:09.080Z,12.30
2022-11-16T09:28:37.124Z,12.30
2022-11-16T09:31:07.109Z,12.40
2022-11-16T09:33:35.477Z,12.50
2022-11-16T09:36:07.073Z,12.50
2022-11-16T09:39:03.201Z,12.50
2022-11-16T09:41:40.474Z,12.40
2022-11-16T09:44:20.160Z,12.30
2022-11-16T09:46:55.116Z,12.30
2022-11-16T09:49:26.030Z,12.30
2022-11-16T09:52:00.355Z,12.30
2022-11-16T09:54:31.375Z,12.20
2022-11-16T09:57:02.301Z,12.30
2022-11-16T09:59:36.516Z,12.30
2022-11-16T10:02:19.337Z,12.40
2022-11-16T10:04:57.913Z,12.50
2022-11-16T10:07:32.623Z,12.60
2022-11-16T10:10:00.989Z,12.70
2022-11-16T10:12:40.133Z,12.70
2022-11-16T10:15:20.380Z,12.70
2022-11-16T10:18:04.190Z,12.60
2022-11-16T10:20:56.218Z,12.50
2022-11-16T10:23:37.890Z,12.30
2022-11-16T10:26:17.805Z,12.40
2022-11-16T10:29:00.906Z,12.60
2022-11-16T10:31:40.341Z,12.70
2022-11-16T10:34:15.211Z,12.80
2022-11-16T10:36:43.040Z,12.80
2022-11-16T10:39:14.425Z,12.80
2022-11-16T10:41:45.705Z,12.80
2022-11-16T10:44:20.175Z,12.70
2022-11-16T10:46:57.607Z,12.70
2022-11-16T10:49:33.465Z,12.70
2022-11-16T10:52:01.238Z,12.70
2022-11-16T10:54:28.991Z,12.80
2022-11-16T10:57:04.410Z,12.90
2022-11-16T10:59:43.461Z,13.00
2022-11-16T11:02:34.436Z,13.00
2022-11-16T11:05:06.523Z,13.00
2022-11-16T11:07:37.567Z,13.00
2022-11-16T11:10:06.977Z,13.10
2022-11-16T11:12:40.377Z,13.10
2022-11-16T11:15:26.259Z,13.30
2022-11-16T11:18:14.661Z,13.30
2022-11-16T11:20:47.738Z,13.40
2022-11-16T11:23:18.408Z,13.40
2022-11-16T11:25:57.412Z,13.40
2022-11-16T11:28:27.790Z,13.40
2022-11-16T11:30:59.706Z,13.50
2022-11-16T11:33:31.060Z,13.50
2022-11-16T11:36:04.175Z,13.60
2022-11-16T11:38:32.880Z,13.60
2022-11-16T11:41:04.948Z,13.70
2022-11-16T11:43:35.057Z,13.70
2022-11-16T11:46:12.715Z,13.80
2022-11-16T11:48:48.986Z,13.80
2022-11-16T11:51:22.652Z,13.90
2022-11-16T11:53:56.250Z,13.90
2022-11-16T11:56:25.349Z,13.90
2022-11-16T11:58:53.665Z,13.90
2022-11-16T12:01:51.258Z,13.70
2022-11-16T12:04:54.119Z,13.70
2022-11-16T12:07:50.392Z,13.60
2022-11-16T12:10:27.042Z,13.60
2022-11-16T12:13:08.813Z,13.60
2022-11-16T12:15:51.472Z,13.60
2022-11-16T12:18:36.965Z,13.60
2022-11-16T12:21:12.661Z,13.60
2022-11-16T12:24:09.095Z,13.50
2022-11-16T12:26:46.076Z,13.50
2022-11-16T12:29:25.680Z,13.40
2022-11-16T12:32:20.093Z,13.40
2022-11-16T12:35:02.395Z,13.40
2022-11-16T12:37:39.356Z,13.40
2022-11-16T12:40:37.288Z,13.30
2022-11-16T12:43:15.405Z,13.40
2022-11-16T12:45:55.155Z,13.40
2022-11-16T12:48:49.985Z,13.40
2022-11-16T12:51:38.313Z,13.60
2022-11-16T12:54:26.692Z,13.70
2022-11-16T12:57:05.394Z,13.70
2022-11-16T12:59:51.446Z,13.70
2022-11-16T13:02:37.930Z,13.70
2022-11-16T13:05:12.904Z,13.70
2022-11-16T13:07:45.003Z,13.60
2022-11-16T13:10:19.984Z,13.60
2022-11-16T13:12:55.729Z,13.60
2022-11-16T13:15:37.157Z,13.60
2022-11-16T13:18:08.415Z,13.60
2022-11-16T13:20:45.796Z,13.70
2022-11-16T13:23:19.749Z,13.60
2022-11-16T13:25:54.786Z,13.70
2022-11-16T13:28:33.732Z,13.80
2022-11-16T13:31:06.809Z,13.80
2022-11-16T13:33:49.275Z,13.90
2022-11-16T13:36:45.240Z,14.10
2022-11-16T13:41:54.317Z,14.10
2022-11-16T13:44:32.199Z,14.10
2022-11-16T13:47:04.970Z,14.20
2022-11-16T13:49:39.035Z,14.10
2022-11-16T13:52:23.284Z,14.10
2022-11-16T13:54:55.453Z,14.10
2022-11-16T13:57:26.668Z,14.30
2022-11-16T14:00:16.950Z,14.40
2022-11-16T14:02:44.867Z,14.40
2022-11-16T14:05:17.577Z,14.30
2022-11-16T14:07:49.953Z,14.30
2022-11-16T14:10:51.261Z,14.30
2022-11-16T14:13:40.145Z,14.30
2022-11-16T14:16:45.816Z,14.20
2022-11-16T14:19:57.044Z,14.10
2022-11-16T14:22:57.605Z,14.00
2022-11-16T14:28:12.299Z,14.00
2022-11-16T14:30:52.722Z,14.00
2022-11-16T14:33:31.011Z,13.90
2022-11-16T14:36:03.254Z,13.90
2022-11-16T14:38:34.506Z,13.90
2022-11-16T14:41:05.974Z,13.80
2022-11-16T14:43:39.976Z,13.80
2022-11-16T14:46:10.770Z,13.80
2022-11-16T14:48:46.077Z,13.80
2022-11-16T14:51:20.413Z,13.80
2022-11-16T14:53:51.717Z,13.80
2022-11-16T14:56:20.691Z,13.70
2022-11-16T14:58:53.875Z,13.70
2022-11-16T15:01:24.888Z,13.60
2022-11-16T15:04:02.206Z,13.70
2022-11-16T15:06:36.539Z,13.70
2022-11-16T15:09:05.947Z,13.70
2022-11-16T15:11:55.681Z,13.60
2022-11-16T15:14:29.413Z,13.60
2022-11-16T15:16:59.983Z,13.60
2022-11-16T15:19:31.957Z,13.60
2022-11-16T15:22:03.234Z,13.60
2022-11-16T15:24:32.813Z,13.60
2022-11-16T15:27:13.503Z,13.50
2022-11-16T15:32:16.433Z,13.50
2022-11-16T15:34:47.884Z,13.50
2022-11-16T15:37:28.214Z,13.50
2022-11-16T15:39:57.344Z,13.40
2022-11-16T15:42:28.025Z,13.40
2022-11-16T15:44:56.594Z,13.40
2022-11-16T15:47:25.305Z,13.40
2022-11-16T15:49:54.005Z,13.40
2022-11-16T15:52:44.302Z,13.40
2022-11-16T15:55:23.663Z,13.30
2022-11-16T15:58:03.747Z,13.30
2022-11-16T16:00:34.693Z,13.20
2022-11-16T16:03:07.519Z,13.20
2022-11-16T16:05:40.805Z,13.20
2022-11-16T16:08:29.906Z,13.10
2022-11-16T16:11:06.221Z,13.10
2022-11-16T16:13:36.423Z,13.10
2022-11-16T16:16:28.540Z,13.00
2022-11-16T16:18:59.197Z,13.00
2022-11-16T16:21:41.409Z,13.00
2022-11-16T16:24:12.432Z,12.90
2022-11-16T16:26:40.185Z,12.90
2022-11-16T16:29:07.963Z,12.90
2022-11-16T16:31:36.014Z,12.80
2022-11-16T16:34:12.454Z,12.80
2022-11-16T16:36:40.324Z,12.70
2022-11-16T16:39:08.519Z,12.70
2022-11-16T16:41:37.868Z,12.70
2022-11-16T16:44:06.222Z,12.70
2022-11-16T16:46:33.980Z,12.70
2022-11-16T16:49:02.177Z,12.70
2022-11-16T16:51:30.157Z,12.70
2022-11-16T16:53:58.009Z,12.70
2022-11-16T16:56:25.909Z,12.70
2022-11-16T16:58:55.084Z,12.70
2022-11-16T17:01:23.052Z,12.70
2022-11-16T17:03:51.053Z,12.70
2022-11-16T17:06:18.975Z,12.70
2022-11-16T17:08:46.804Z,12.60
2022-11-16T17:11:16.048Z,12.60
2022-11-16T17:13:44.022Z,12.70
2022-11-16T17:16:13.506Z,12.60
2022-11-16T17:18:41.331Z,12.60
2022-11-16T17:21:10.586Z,12.60
2022-11-16T17:23:38.808Z,12.70
2022-11-16T17:26:08.147Z,12.60
2022-11-16T17:28:37.181Z,12.60
2022-11-16T17:31:08.638Z,12.60
2022-11-16T17:33:39.139Z,12.70
2022-11-16T17:36:09.097Z,12.60
2022-11-16T17:38:37.380Z,12.60
2022-11-16T17:41:06.832Z,12.60
2022-11-16T17:43:35.518Z,12.60
2022-11-16T17:46:08.761Z,12.50
2022-11-16T17:48:39.213Z,12.50
2022-11-16T17:51:07.845Z,12.50
2022-11-16T17:53:36.609Z,12.50
2022-11-16T17:56:05.824Z,12.50
2022-11-16T17:58:35.303Z,12.50
2022-11-16T18:01:03.577Z,12.50
2022-11-16T18:06:13.342Z,12.50
2022-11-16T18:08:43.605Z,12.50
2022-11-16T18:11:14.049Z,12.50
2022-11-16T18:13:43.282Z,12.40
2022-11-16T18:16:13.641Z,12.40
2022-11-16T18:18:42.431Z,12.40
2022-11-16T18:21:20.697Z,12.40
2022-11-16T18:26:23.670Z,12.30
2022-11-16T18:28:52.988Z,12.30
2022-11-16T18:31:22.709Z,12.30
2022-11-16T18:33:52.373Z,12.30
2022-11-16T18:36:22.657Z,12.40
2022-11-16T18:41:21.881Z,12.40
2022-11-16T18:43:52.412Z,12.40
2022-11-16T18:48:49.252Z,12.40
2022-11-16T18:51:18.620Z,12.40
2022-11-16T18:53:48.341Z,12.40
2022-11-16T18:56:16.741Z,12.40
2022-11-16T19:28:09.461Z,12.50
2022-11-16T19:30:37.217Z,12.50
2022-11-16T19:33:05.099Z,12.50
2022-11-16T19:35:32.983Z,12.50
2022-11-16T19:38:02.232Z,12.50
2022-11-16T19:40:30.189Z,12.60
2022-11-16T19:42:58.033Z,12.50
2022-11-16T19:45:26.128Z,12.50
2022-11-16T19:47:54.034Z,12.50
2022-11-16T19:50:23.580Z,12.50
2022-11-16T19:52:51.409Z,12.50
2022-11-16T19:55:21.012Z,12.50
2022-11-16T19:57:48.970Z,12.50
2022-11-16T20:00:18.364Z,12.50
2022-11-16T20:02:46.312Z,12.50
2022-11-16T20:07:44.560Z,12.50
2022-11-16T20:10:12.531Z,12.40
2022-11-16T20:17:39.754Z,12.50
2022-11-16T20:20:08.618Z,12.50
2022-11-16T20:22:36.381Z,12.50
2022-11-16T20:25:04.337Z,12.50
2022-11-16T20:27:32.250Z,12.50
2022-11-16T20:30:06.447Z,12.50
2022-11-16T20:32:36.997Z,12.50
2022-11-16T20:35:05.090Z,12.50
2022-11-16T20:37:32.896Z,12.40
2022-11-16T20:40:00.671Z,12.40
2022-11-16T20:42:28.602Z,12.40
2022-11-16T20:44:56.773Z,12.30
2022-11-16T20:47:26.024Z,12.30
2022-11-16T20:49:53.995Z,12.30
2022-11-16T20:52:21.929Z,12.30
2022-11-16T20:54:49.795Z,12.30
2022-11-16T20:57:17.789Z,12.30
2022-11-16T20:59:45.705Z,12.30
2022-11-16T21:02:13.583Z,12.20
2022-11-16T21:04:42.885Z,12.20
2022-11-16T21:07:11.357Z,12.10
2022-11-16T21:09:53.182Z,12.10
2022-11-16T21:12:42.639Z,12.00
2022-11-16T21:15:11.389Z,12.00
2022-11-16T21:17:39.259Z,12.00
2022-11-16T21:20:27.125Z,12.00
2022-11-16T21:22:55.856Z,12.00
2022-11-16T21:25:23.769Z,12.00
2022-11-16T21:27:51.617Z,12.00
2022-11-16T21:30:19.662Z,12.00
2022-11-16T21:32:47.565Z,12.00
2022-11-16T21:35:17.006Z,12.00
2022-11-16T21:37:44.852Z,12.00
2022-11-16T21:40:13.546Z,12.00
2022-11-16T21:42:41.404Z,11.90
2022-11-16T21:45:10.683Z,11.90
2022-11-16T21:47:38.644Z,11.90
2022-11-16T21:52:56.725Z,11.90
2022-11-16T21:55:24.871Z,11.90
2022-11-16T21:57:52.657Z,11.90
2022-11-16T22:00:21.308Z,11.90
2022-11-16T22:02:49.371Z,11.90
2022-11-16T22:05:34.866Z,12.00
2022-11-16T22:08:06.666Z,12.00
2022-11-16T22:10:35.072Z,12.00
2022-11-16T22:13:02.965Z,12.00
2022-11-16T22:15:30.948Z,12.00
2022-11-16T22:17:58.715Z,12.00
2022-11-16T22:20:26.616Z,12.00
2022-11-16T22:22:54.348Z,12.00
2022-11-16T22:25:23.491Z,12.00
2022-11-16T22:28:19.234Z,12.00
2022-11-16T22:30:39.650Z,12.00
2022-11-16T22:33:10.549Z,12.00
2022-11-16T22:35:38.533Z,12.00
2022-11-16T22:38:07.117Z,12.00
2022-11-16T22:40:36.298Z,11.90
2022-11-16T22:43:04.116Z,11.90
2022-11-16T22:45:32.004Z,11.90
2022-11-16T22:47:59.920Z,11.90
2022-11-16T22:50:27.737Z,11.90
2022-11-16T22:52:58.967Z,11.90
2022-11-16T22:55:26.903Z,11.90
2022-11-16T22:57:56.251Z,11.90
2022-11-16T23:00:24.262Z,11.90
2022-11-16T23:02:53.125Z,12.00
2022-11-16T23:05:20.959Z,12.00
2022-11-16T23:07:48.803Z,12.00
2022-11-16T23:10:16.732Z,12.00
2022-11-16T23:13:02.451Z,12.00
2022-11-16T23:15:48.400Z,11.90
2022-11-16T23:18:16.340Z,11.90
2022-11-16T23:21:03.943Z,11.80
2022-11-16T23:23:49.507Z,11.80
2022-11-16T23:26:41.223Z,11.80
2022-11-16T23:29:10.958Z,11.70
2022-11-16T23:31:40.121Z,11.70
2022-11-16T23:34:07.881Z,11.70
2022-11-16T23:36:35.795Z,11.80
2022-11-16T23:39:03.581Z,11.80
2022-11-16T23:41:48.999Z,11.80
2022-11-16T23:44:16.802Z,11.90
2022-11-16T23:46:45.891Z,11.80
2022-11-16T23:49:13.630Z,11.80
2022-11-16T23:51:41.555Z,11.80
2022-11-16T23:56:37.357Z,11.70
2022-11-16T23:59:05.241Z,11.70
